sensor_id;sensor_type;location;lat;lon;timestamp;P1;durP1;ratioP1;P2;durP2;ratioP2
19137;SDS011;68178;52.188;5.598;2023-06-14T00:01:01;6.10;;;3.13;;
19137;SDS011;68178;52.188;5.598;2023-06-14T00:03:28;5.43;;;2.97;;
19137;SDS011;68178;52.188;5.598;2023-06-14T00:05:54;4.90;;;2.80;;
19137;SDS011;68178;52.188;5.598;2023-06-14T00:08:19;4.30;;;3.05;;
19137;SDS011;68178;52.188;5.598;2023-06-14T00:10:47;5.55;;;3.13;;
19137;SDS011;68178;52.188;5.598;2023-06-14T00:13:13;4.13;;;2.90;;
19137;SDS011;68178;52.188;5.598;2023-06-14T00:15:39;8.32;;;4.00;;
19137;SDS011;68178;52.188;5.598;2023-06-14T00:18:05;12.00;;;3.42;;
19137;SDS011;68178;52.188;5.598;2023-06-14T00:20:32;9.27;;;3.22;;
19137;SDS011;68178;52.188;5.598;2023-06-14T00:23:01;5.00;;;3.15;;
19137;SDS011;68178;52.188;5.598;2023-06-14T00:25:27;7.75;;;2.95;;
19137;SDS011;68178;52.188;5.598;2023-06-14T00:27:53;4.47;;;3.25;;
19137;SDS011;68178;52.188;5.598;2023-06-14T00:30:19;6.75;;;2.92;;
19137;SDS011;68178;52.188;5.598;2023-06-14T00:32:45;6.55;;;3.00;;
19137;SDS011;68178;52.188;5.598;2023-06-14T00:35:11;5.45;;;2.97;;
19137;SDS011;68178;52.188;5.598;2023-06-14T00:37:37;11.10;;;3.33;;
19137;SDS011;68178;52.188;5.598;2023-06-14T00:40:03;6.05;;;3.00;;
19137;SDS011;68178;52.188;5.598;2023-06-14T00:42:30;5.10;;;2.92;;
19137;SDS011;68178;52.188;5.598;2023-06-14T00:44:56;7.88;;;3.10;;
19137;SDS011;68178;52.188;5.598;2023-06-14T00:47:22;6.03;;;2.97;;
19137;SDS011;68178;52.188;5.598;2023-06-14T00:49:48;7.30;;;3.20;;
19137;SDS011;68178;52.188;5.598;2023-06-14T00:52:16;5.03;;;2.80;;
19137;SDS011;68178;52.188;5.598;2023-06-14T00:54:42;5.95;;;3.00;;
19137;SDS011;68178;52.188;5.598;2023-06-14T00:57:08;7.50;;;3.45;;
19137;SDS011;68178;52.188;5.598;2023-06-14T00:59:36;5.45;;;3.30;;
19137;SDS011;68178;52.188;5.598;2023-06-14T01:02:13;11.05;;;3.58;;
19137;SDS011;68178;52.188;5.598;2023-06-14T01:04:43;5.57;;;3.60;;
19137;SDS011;68178;52.188;5.598;2023-06-14T01:12:44;6.60;;;2.88;;
19137;SDS011;68178;52.188;5.598;2023-06-14T01:15:18;5.13;;;2.80;;
19137;SDS011;68178;52.188;5.598;2023-06-14T01:17:45;5.22;;;3.20;;
19137;SDS011;68178;52.188;5.598;2023-06-14T01:20:16;5.15;;;3.03;;
19137;SDS011;68178;52.188;5.598;2023-06-14T01:23:15;5.47;;;2.63;;
19137;SDS011;68178;52.188;5.598;2023-06-14T01:25:34;5.88;;;3.63;;
19137;SDS011;68178;52.188;5.598;2023-06-14T01:28:03;6.60;;;2.55;;
19137;SDS011;68178;52.188;5.598;2023-06-14T01:30:35;6.95;;;2.80;;
19137;SDS011;68178;52.188;5.598;2023-06-14T01:33:03;9.57;;;3.53;;
19137;SDS011;68178;52.188;5.598;2023-06-14T01:35:30;4.18;;;2.50;;
19137;SDS011;68178;52.188;5.598;2023-06-14T01:37:56;8.07;;;3.00;;
19137;SDS011;68178;52.188;5.598;2023-06-14T01:40:23;4.15;;;3.03;;
19137;SDS011;68178;52.188;5.598;2023-06-14T01:42:50;9.10;;;3.15;;
19137;SDS011;68178;52.188;5.598;2023-06-14T01:45:16;7.70;;;2.95;;
19137;SDS011;68178;52.188;5.598;2023-06-14T01:47:44;5.90;;;3.03;;
19137;SDS011;68178;52.188;5.598;2023-06-14T01:50:10;4.95;;;2.72;;
19137;SDS011;68178;52.188;5.598;2023-06-14T01:52:36;7.18;;;2.92;;
19137;SDS011;68178;52.188;5.598;2023-06-14T01:55:04;6.93;;;3.20;;
19137;SDS011;68178;52.188;5.598;2023-06-14T01:57:30;5.22;;;2.70;;
19137;SDS011;68178;52.188;5.598;2023-06-14T01:59:56;5.57;;;2.95;;
19137;SDS011;68178;52.188;5.598;2023-06-14T02:02:22;4.90;;;2.40;;
19137;SDS011;68178;52.188;5.598;2023-06-14T02:04:47;8.15;;;2.95;;
19137;SDS011;68178;52.188;5.598;2023-06-14T02:07:13;5.78;;;2.85;;
19137;SDS011;68178;52.188;5.598;2023-06-14T02:09:39;3.78;;;2.90;;
19137;SDS011;68178;52.188;5.598;2023-06-14T02:12:05;6.32;;;3.20;;
19137;SDS011;68178;52.188;5.598;2023-06-14T02:14:32;4.55;;;2.97;;
19137;SDS011;68178;52.188;5.598;2023-06-14T02:16:58;7.60;;;2.90;;
19137;SDS011;68178;52.188;5.598;2023-06-14T02:19:26;7.05;;;2.83;;
19137;SDS011;68178;52.188;5.598;2023-06-14T02:21:52;4.60;;;3.00;;
19137;SDS011;68178;52.188;5.598;2023-06-14T02:24:17;3.40;;;2.78;;
19137;SDS011;68178;52.188;5.598;2023-06-14T02:26:43;5.68;;;2.85;;
19137;SDS011;68178;52.188;5.598;2023-06-14T02:29:08;5.35;;;2.95;;
19137;SDS011;68178;52.188;5.598;2023-06-14T02:31:36;2.35;;;2.00;;
19137;SDS011;68178;52.188;5.598;2023-06-14T02:34:02;5.90;;;3.00;;
19137;SDS011;68178;52.188;5.598;2023-06-14T02:36:27;4.85;;;2.63;;
19137;SDS011;68178;52.188;5.598;2023-06-14T02:38:55;8.18;;;2.75;;
19137;SDS011;68178;52.188;5.598;2023-06-14T02:41:22;6.05;;;3.10;;
19137;SDS011;68178;52.188;5.598;2023-06-14T02:43:48;5.15;;;3.17;;
19137;SDS011;68178;52.188;5.598;2023-06-14T02:46:14;5.82;;;2.70;;
19137;SDS011;68178;52.188;5.598;2023-06-14T02:48:40;6.57;;;3.45;;
19137;SDS011;68178;52.188;5.598;2023-06-14T02:51:05;9.65;;;2.95;;
19137;SDS011;68178;52.188;5.598;2023-06-14T02:53:33;5.88;;;2.90;;
19137;SDS011;68178;52.188;5.598;2023-06-14T02:55:58;4.45;;;3.03;;
19137;SDS011;68178;52.188;5.598;2023-06-14T02:58:24;7.32;;;3.42;;
19137;SDS011;68178;52.188;5.598;2023-06-14T03:00:50;5.28;;;2.83;;
19137;SDS011;68178;52.188;5.598;2023-06-14T03:03:17;4.95;;;2.60;;
19137;SDS011;68178;52.188;5.598;2023-06-14T03:05:44;5.93;;;3.05;;
19137;SDS011;68178;52.188;5.598;2023-06-14T03:08:12;7.32;;;3.10;;
19137;SDS011;68178;52.188;5.598;2023-06-14T03:10:45;5.55;;;2.97;;
19137;SDS011;68178;52.188;5.598;2023-06-14T03:13:11;4.40;;;3.20;;
19137;SDS011;68178;52.188;5.598;2023-06-14T03:15:40;8.68;;;2.65;;
19137;SDS011;68178;52.188;5.598;2023-06-14T03:18:07;6.18;;;3.00;;
19137;SDS011;68178;52.188;5.598;2023-06-14T03:20:34;7.35;;;2.78;;
19137;SDS011;68178;52.188;5.598;2023-06-14T03:23:00;5.20;;;2.92;;
19137;SDS011;68178;52.188;5.598;2023-06-14T03:25:27;5.82;;;2.78;;
19137;SDS011;68178;52.188;5.598;2023-06-14T03:27:54;4.55;;;2.67;;
19137;SDS011;68178;52.188;5.598;2023-06-14T03:30:20;6.35;;;2.60;;
19137;SDS011;68178;52.188;5.598;2023-06-14T03:32:46;3.42;;;2.88;;
19137;SDS011;68178;52.188;5.598;2023-06-14T03:35:11;5.90;;;2.75;;
19137;SDS011;68178;52.188;5.598;2023-06-14T03:37:42;3.50;;;3.05;;
19137;SDS011;68178;52.188;5.598;2023-06-14T03:40:08;4.78;;;3.05;;
19137;SDS011;68178;52.188;5.598;2023-06-14T03:42:34;9.05;;;2.72;;
19137;SDS011;68178;52.188;5.598;2023-06-14T03:44:59;5.40;;;2.67;;
19137;SDS011;68178;52.188;5.598;2023-06-14T03:47:25;6.53;;;2.42;;
19137;SDS011;68178;52.188;5.598;2023-06-14T03:49:52;4.80;;;2.88;;
19137;SDS011;68178;52.188;5.598;2023-06-14T03:52:17;3.97;;;2.70;;
19137;SDS011;68178;52.188;5.598;2023-06-14T03:54:43;4.38;;;2.90;;
19137;SDS011;68178;52.188;5.598;2023-06-14T03:57:09;5.75;;;2.85;;
19137;SDS011;68178;52.188;5.598;2023-06-14T03:59:35;4.18;;;2.70;;
19137;SDS011;68178;52.188;5.598;2023-06-14T04:02:01;4.32;;;3.03;;
19137;SDS011;68178;52.188;5.598;2023-06-14T04:04:27;8.98;;;2.92;;
19137;SDS011;68178;52.188;5.598;2023-06-14T04:06:54;8.05;;;3.03;;
19137;SDS011;68178;52.188;5.598;2023-06-14T04:09:23;4.72;;;3.15;;
19137;SDS011;68178;52.188;5.598;2023-06-14T04:11:50;3.67;;;2.70;;
19137;SDS011;68178;52.188;5.598;2023-06-14T04:14:17;4.88;;;2.83;;
19137;SDS011;68178;52.188;5.598;2023-06-14T04:16:47;3.58;;;2.40;;
19137;SDS011;68178;52.188;5.598;2023-06-14T04:19:13;7.20;;;3.00;;
19137;SDS011;68178;52.188;5.598;2023-06-14T04:21:39;5.18;;;3.20;;
19137;SDS011;68178;52.188;5.598;2023-06-14T04:24:05;7.80;;;3.03;;
19137;SDS011;68178;52.188;5.598;2023-06-14T04:26:31;3.80;;;2.88;;
19137;SDS011;68178;52.188;5.598;2023-06-14T04:28:58;7.80;;;2.90;;
19137;SDS011;68178;52.188;5.598;2023-06-14T04:31:28;3.17;;;2.88;;
19137;SDS011;68178;52.188;5.598;2023-06-14T04:33:55;5.03;;;2.60;;
19137;SDS011;68178;52.188;5.598;2023-06-14T04:36:21;3.67;;;2.70;;
19137;SDS011;68178;52.188;5.598;2023-06-14T04:38:47;4.30;;;2.88;;
19137;SDS011;68178;52.188;5.598;2023-06-14T04:41:14;3.97;;;2.80;;
19137;SDS011;68178;52.188;5.598;2023-06-14T04:43:40;4.03;;;2.58;;
19137;SDS011;68178;52.188;5.598;2023-06-14T04:46:07;3.63;;;2.47;;
19137;SDS011;68178;52.188;5.598;2023-06-14T04:48:39;8.27;;;2.75;;
19137;SDS011;68178;52.188;5.598;2023-06-14T04:51:08;6.38;;;2.83;;
19137;SDS011;68178;52.188;5.598;2023-06-14T04:53:34;5.88;;;3.20;;
19137;SDS011;68178;52.188;5.598;2023-06-14T04:56:00;5.97;;;2.80;;
19137;SDS011;68178;52.188;5.598;2023-06-14T04:58:26;4.60;;;2.70;;
19137;SDS011;68178;52.188;5.598;2023-06-14T05:00:53;7.20;;;3.30;;
19137;SDS011;68178;52.188;5.598;2023-06-14T05:03:20;5.32;;;2.88;;
19137;SDS011;68178;52.188;5.598;2023-06-14T05:05:46;5.65;;;3.15;;
19137;SDS011;68178;52.188;5.598;2023-06-14T05:08:12;4.82;;;2.97;;
19137;SDS011;68178;52.188;5.598;2023-06-14T05:10:38;5.68;;;3.13;;
19137;SDS011;68178;52.188;5.598;2023-06-14T05:13:04;3.75;;;2.90;;
19137;SDS011;68178;52.188;5.598;2023-06-14T05:15:29;6.03;;;3.10;;
19137;SDS011;68178;52.188;5.598;2023-06-14T05:17:55;3.60;;;2.67;;
19137;SDS011;68178;52.188;5.598;2023-06-14T05:20:24;5.78;;;2.95;;
19137;SDS011;68178;52.188;5.598;2023-06-14T05:22:52;5.40;;;3.63;;
19137;SDS011;68178;52.188;5.598;2023-06-14T05:25:21;3.95;;;2.95;;
19137;SDS011;68178;52.188;5.598;2023-06-14T05:27:47;2.75;;;2.45;;
19137;SDS011;68178;52.188;5.598;2023-06-14T05:30:14;8.40;;;3.30;;
19137;SDS011;68178;52.188;5.598;2023-06-14T05:32:40;6.30;;;3.22;;
19137;SDS011;68178;52.188;5.598;2023-06-14T05:35:06;3.75;;;2.58;;
19137;SDS011;68178;52.188;5.598;2023-06-14T05:37:32;5.80;;;3.08;;
19137;SDS011;68178;52.188;5.598;2023-06-14T05:39:57;6.25;;;3.38;;
19137;SDS011;68178;52.188;5.598;2023-06-14T05:42:23;5.15;;;3.40;;
19137;SDS011;68178;52.188;5.598;2023-06-14T05:44:48;3.42;;;2.90;;
19137;SDS011;68178;52.188;5.598;2023-06-14T05:47:14;5.10;;;2.63;;
19137;SDS011;68178;52.188;5.598;2023-06-14T05:49:40;4.97;;;3.00;;
19137;SDS011;68178;52.188;5.598;2023-06-14T05:52:05;4.30;;;2.70;;
19137;SDS011;68178;52.188;5.598;2023-06-14T05:54:32;6.50;;;3.28;;
19137;SDS011;68178;52.188;5.598;2023-06-14T05:56:57;5.72;;;2.90;;
19137;SDS011;68178;52.188;5.598;2023-06-14T05:59:26;3.10;;;2.78;;
19137;SDS011;68178;52.188;5.598;2023-06-14T06:01:52;6.82;;;3.20;;
19137;SDS011;68178;52.188;5.598;2023-06-14T06:04:18;5.72;;;2.80;;
19137;SDS011;68178;52.188;5.598;2023-06-14T06:06:43;5.68;;;3.22;;
19137;SDS011;68178;52.188;5.598;2023-06-14T06:09:10;5.53;;;2.83;;
19137;SDS011;68178;52.188;5.598;2023-06-14T06:11:35;3.08;;;2.55;;
19137;SDS011;68178;52.188;5.598;2023-06-14T06:14:01;6.95;;;3.20;;
19137;SDS011;68178;52.188;5.598;2023-06-14T06:16:26;6.75;;;2.88;;
19137;SDS011;68178;52.188;5.598;2023-06-14T06:18:52;8.38;;;3.10;;
19137;SDS011;68178;52.188;5.598;2023-06-14T06:21:17;5.30;;;3.17;;
19137;SDS011;68178;52.188;5.598;2023-06-14T06:23:43;5.38;;;3.33;;
19137;SDS011;68178;52.188;5.598;2023-06-14T06:26:08;8.23;;;3.55;;
19137;SDS011;68178;52.188;5.598;2023-06-14T06:28:34;3.55;;;2.80;;
19137;SDS011;68178;52.188;5.598;2023-06-14T06:31:00;4.00;;;2.80;;
19137;SDS011;68178;52.188;5.598;2023-06-14T06:33:26;4.70;;;2.70;;
19137;SDS011;68178;52.188;5.598;2023-06-14T06:35:51;4.25;;;3.20;;
19137;SDS011;68178;52.188;5.598;2023-06-14T06:38:17;5.80;;;3.05;;
19137;SDS011;68178;52.188;5.598;2023-06-14T06:40:43;4.63;;;2.35;;
19137;SDS011;68178;52.188;5.598;2023-06-14T06:43:09;3.72;;;2.90;;
19137;SDS011;68178;52.188;5.598;2023-06-14T06:45:38;4.97;;;2.97;;
19137;SDS011;68178;52.188;5.598;2023-06-14T06:48:04;4.38;;;3.00;;
19137;SDS011;68178;52.188;5.598;2023-06-14T06:50:30;3.40;;;3.10;;
19137;SDS011;68178;52.188;5.598;2023-06-14T06:52:55;6.70;;;3.28;;
19137;SDS011;68178;52.188;5.598;2023-06-14T06:55:21;3.17;;;2.60;;
19137;SDS011;68178;52.188;5.598;2023-06-14T06:57:47;4.78;;;2.85;;
19137;SDS011;68178;52.188;5.598;2023-06-14T07:00:13;6.30;;;3.15;;
19137;SDS011;68178;52.188;5.598;2023-06-14T07:02:38;3.33;;;2.45;;
19137;SDS011;68178;52.188;5.598;2023-06-14T07:05:04;3.15;;;2.83;;
19137;SDS011;68178;52.188;5.598;2023-06-14T07:07:30;3.25;;;2.75;;
19137;SDS011;68178;52.188;5.598;2023-06-14T07:09:56;4.63;;;2.92;;
19137;SDS011;68178;52.188;5.598;2023-06-14T07:12:22;4.78;;;2.60;;
19137;SDS011;68178;52.188;5.598;2023-06-14T07:14:48;5.05;;;2.75;;
19137;SDS011;68178;52.188;5.598;2023-06-14T07:17:14;4.15;;;2.65;;
19137;SDS011;68178;52.188;5.598;2023-06-14T07:19:39;3.45;;;2.42;;
19137;SDS011;68178;52.188;5.598;2023-06-14T07:22:05;4.05;;;2.10;;
19137;SDS011;68178;52.188;5.598;2023-06-14T07:24:30;4.38;;;2.45;;
19137;SDS011;68178;52.188;5.598;2023-06-14T07:26:56;4.43;;;2.25;;
19137;SDS011;68178;52.188;5.598;2023-06-14T07:29:21;3.45;;;2.22;;
19137;SDS011;68178;52.188;5.598;2023-06-14T07:31:47;8.13;;;2.08;;
19137;SDS011;68178;52.188;5.598;2023-06-14T07:34:13;3.38;;;2.17;;
19137;SDS011;68178;52.188;5.598;2023-06-14T07:36:38;6.15;;;2.03;;
19137;SDS011;68178;52.188;5.598;2023-06-14T07:39:04;3.78;;;2.13;;
19137;SDS011;68178;52.188;5.598;2023-06-14T07:41:31;5.40;;;2.35;;
19137;SDS011;68178;52.188;5.598;2023-06-14T07:43:57;7.57;;;2.00;;
19137;SDS011;68178;52.188;5.598;2023-06-14T07:46:23;3.92;;;2.17;;
19137;SDS011;68178;52.188;5.598;2023-06-14T07:48:49;4.05;;;2.30;;
19137;SDS011;68178;52.188;5.598;2023-06-14T07:51:14;3.50;;;2.25;;
19137;SDS011;68178;52.188;5.598;2023-06-14T07:53:40;4.10;;;2.67;;
19137;SDS011;68178;52.188;5.598;2023-06-14T07:56:08;3.83;;;1.90;;
19137;SDS011;68178;52.188;5.598;2023-06-14T07:58:34;3.28;;;2.00;;
19137;SDS011;68178;52.188;5.598;2023-06-14T08:00:59;2.45;;;1.67;;
19137;SDS011;68178;52.188;5.598;2023-06-14T08:03:26;2.47;;;1.88;;
19137;SDS011;68178;52.188;5.598;2023-06-14T08:05:52;3.60;;;1.70;;
19137;SDS011;68178;52.188;5.598;2023-06-14T08:08:17;2.03;;;1.83;;
19137;SDS011;68178;52.188;5.598;2023-06-14T08:10:43;1.65;;;1.55;;
19137;SDS011;68178;52.188;5.598;2023-06-14T08:13:09;3.50;;;1.70;;
19137;SDS011;68178;52.188;5.598;2023-06-14T08:15:35;1.67;;;1.58;;
19137;SDS011;68178;52.188;5.598;2023-06-14T08:18:00;2.92;;;2.00;;
19137;SDS011;68178;52.188;5.598;2023-06-14T08:20:26;3.25;;;1.95;;
19137;SDS011;68178;52.188;5.598;2023-06-14T08:22:51;2.17;;;1.88;;
19137;SDS011;68178;52.188;5.598;2023-06-14T08:25:20;3.08;;;1.50;;
19137;SDS011;68178;52.188;5.598;2023-06-14T08:27:46;2.13;;;1.80;;
19137;SDS011;68178;52.188;5.598;2023-06-14T08:30:11;1.60;;;1.50;;
19137;SDS011;68178;52.188;5.598;2023-06-14T08:32:37;6.30;;;1.73;;
19137;SDS011;68178;52.188;5.598;2023-06-14T08:35:03;2.83;;;1.42;;
19137;SDS011;68178;52.188;5.598;2023-06-14T08:37:30;3.90;;;1.73;;
19137;SDS011;68178;52.188;5.598;2023-06-14T08:39:56;4.25;;;1.88;;
19137;SDS011;68178;52.188;5.598;2023-06-14T08:42:21;2.78;;;1.92;;
19137;SDS011;68178;52.188;5.598;2023-06-14T08:44:49;2.63;;;1.30;;
19137;SDS011;68178;52.188;5.598;2023-06-14T08:47:15;2.50;;;1.75;;
19137;SDS011;68178;52.188;5.598;2023-06-14T08:49:43;3.97;;;1.80;;
19137;SDS011;68178;52.188;5.598;2023-06-14T08:52:12;2.30;;;1.67;;
19137;SDS011;68178;52.188;5.598;2023-06-14T08:54:40;2.65;;;1.50;;
19137;SDS011;68178;52.188;5.598;2023-06-14T08:57:09;3.67;;;1.63;;
19137;SDS011;68178;52.188;5.598;2023-06-14T08:59:37;3.03;;;1.45;;
19137;SDS011;68178;52.188;5.598;2023-06-14T09:02:11;2.28;;;1.25;;
19137;SDS011;68178;52.188;5.598;2023-06-14T09:04:39;2.90;;;1.90;;
19137;SDS011;68178;52.188;5.598;2023-06-14T09:07:05;4.47;;;2.30;;
19137;SDS011;68178;52.188;5.598;2023-06-14T09:09:31;4.97;;;1.80;;
19137;SDS011;68178;52.188;5.598;2023-06-14T09:11:57;1.85;;;1.70;;
19137;SDS011;68178;52.188;5.598;2023-06-14T09:14:25;2.22;;;1.85;;
19137;SDS011;68178;52.188;5.598;2023-06-14T09:16:54;2.20;;;1.80;;
19137;SDS011;68178;52.188;5.598;2023-06-14T09:19:23;2.53;;;2.05;;
19137;SDS011;68178;52.188;5.598;2023-06-14T09:21:49;3.47;;;1.75;;
19137;SDS011;68178;52.188;5.598;2023-06-14T09:24:17;2.75;;;1.95;;
19137;SDS011;68178;52.188;5.598;2023-06-14T09:26:46;2.13;;;1.55;;
19137;SDS011;68178;52.188;5.598;2023-06-14T09:29:12;3.92;;;1.98;;
19137;SDS011;68178;52.188;5.598;2023-06-14T09:31:37;3.30;;;2.08;;
19137;SDS011;68178;52.188;5.598;2023-06-14T09:34:03;3.22;;;2.17;;
19137;SDS011;68178;52.188;5.598;2023-06-14T09:36:31;5.07;;;1.98;;
19137;SDS011;68178;52.188;5.598;2023-06-14T09:38:57;2.40;;;1.52;;
19137;SDS011;68178;52.188;5.598;2023-06-14T09:41:35;2.83;;;2.00;;
19137;SDS011;68178;52.188;5.598;2023-06-14T09:44:02;2.42;;;1.52;;
19137;SDS011;68178;52.188;5.598;2023-06-14T09:46:30;1.75;;;1.65;;
19137;SDS011;68178;52.188;5.598;2023-06-14T09:48:56;3.85;;;1.65;;
19137;SDS011;68178;52.188;5.598;2023-06-14T09:51:22;2.20;;;1.80;;
19137;SDS011;68178;52.188;5.598;2023-06-14T09:53:49;2.53;;;1.70;;
19137;SDS011;68178;52.188;5.598;2023-06-14T09:56:17;2.50;;;1.73;;
19137;SDS011;68178;52.188;5.598;2023-06-14T09:58:53;4.32;;;1.58;;
19137;SDS011;68178;52.188;5.598;2023-06-14T10:01:21;2.53;;;1.45;;
19137;SDS011;68178;52.188;5.598;2023-06-14T10:03:55;8.10;;;2.13;;
19137;SDS011;68178;52.188;5.598;2023-06-14T10:06:25;1.85;;;1.73;;
19137;SDS011;68178;52.188;5.598;2023-06-14T10:08:53;2.30;;;1.85;;
19137;SDS011;68178;52.188;5.598;2023-06-14T10:11:24;2.88;;;1.73;;
19137;SDS011;68178;52.188;5.598;2023-06-14T10:13:51;4.35;;;1.92;;
19137;SDS011;68178;52.188;5.598;2023-06-14T10:16:19;1.85;;;1.60;;
19137;SDS011;68178;52.188;5.598;2023-06-14T10:22:05;2.85;;;1.85;;
19137;SDS011;68178;52.188;5.598;2023-06-14T10:24:37;3.38;;;1.92;;
19137;SDS011;68178;52.188;5.598;2023-06-14T10:27:06;1.85;;;1.70;;
19137;SDS011;68178;52.188;5.598;2023-06-14T10:29:43;2.20;;;1.98;;
19137;SDS011;68178;52.188;5.598;2023-06-14T10:32:27;4.47;;;1.60;;
19137;SDS011;68178;52.188;5.598;2023-06-14T10:34:59;2.08;;;1.55;;
19137;SDS011;68178;52.188;5.598;2023-06-14T10:37:26;2.92;;;1.65;;
19137;SDS011;68178;52.188;5.598;2023-06-14T10:39:52;1.67;;;1.52;;
19137;SDS011;68178;52.188;5.598;2023-06-14T10:42:18;3.33;;;1.83;;
19137;SDS011;68178;52.188;5.598;2023-06-14T10:44:51;1.63;;;1.52;;
19137;SDS011;68178;52.188;5.598;2023-06-14T10:50:14;4.93;;;1.50;;
19137;SDS011;68178;52.188;5.598;2023-06-14T10:52:42;4.15;;;1.88;;
19137;SDS011;68178;52.188;5.598;2023-06-14T10:57:46;3.47;;;1.98;;
19137;SDS011;68178;52.188;5.598;2023-06-14T11:00:24;2.20;;;1.63;;
19137;SDS011;68178;52.188;5.598;2023-06-14T11:05:29;2.67;;;1.77;;
19137;SDS011;68178;52.188;5.598;2023-06-14T11:10:40;2.67;;;1.60;;
19137;SDS011;68178;52.188;5.598;2023-06-14T11:13:08;2.50;;;1.70;;
19137;SDS011;68178;52.188;5.598;2023-06-14T11:15:34;2.60;;;1.60;;
19137;SDS011;68178;52.188;5.598;2023-06-14T11:18:04;5.53;;;1.77;;
19137;SDS011;68178;52.188;5.598;2023-06-14T11:20:33;2.33;;;1.65;;
19137;SDS011;68178;52.188;5.598;2023-06-14T11:23:03;2.67;;;1.55;;
19137;SDS011;68178;52.188;5.598;2023-06-14T11:25:29;3.10;;;1.63;;
19137;SDS011;68178;52.188;5.598;2023-06-14T11:27:55;2.63;;;1.95;;
19137;SDS011;68178;52.188;5.598;2023-06-14T11:30:22;4.78;;;1.92;;
19137;SDS011;68178;52.188;5.598;2023-06-14T11:32:48;4.20;;;1.63;;
19137;SDS011;68178;52.188;5.598;2023-06-14T11:35:15;2.00;;;1.75;;
19137;SDS011;68178;52.188;5.598;2023-06-14T11:37:42;4.20;;;1.80;;
19137;SDS011;68178;52.188;5.598;2023-06-14T11:40:09;3.25;;;1.65;;
19137;SDS011;68178;52.188;5.598;2023-06-14T11:42:36;2.08;;;1.80;;
19137;SDS011;68178;52.188;5.598;2023-06-14T11:45:03;3.97;;;1.50;;
19137;SDS011;68178;52.188;5.598;2023-06-14T11:47:32;3.70;;;1.52;;
19137;SDS011;68178;52.188;5.598;2023-06-14T11:50:02;2.72;;;1.52;;
19137;SDS011;68178;52.188;5.598;2023-06-14T11:52:29;2.55;;;1.70;;
19137;SDS011;68178;52.188;5.598;2023-06-14T11:54:56;2.65;;;1.90;;
19137;SDS011;68178;52.188;5.598;2023-06-14T11:57:22;4.55;;;1.90;;
19137;SDS011;68178;52.188;5.598;2023-06-14T11:59:48;3.05;;;1.50;;
19137;SDS011;68178;52.188;5.598;2023-06-14T12:02:17;2.22;;;1.70;;
19137;SDS011;68178;52.188;5.598;2023-06-14T12:04:46;2.95;;;1.90;;
19137;SDS011;68178;52.188;5.598;2023-06-14T12:07:16;1.63;;;1.50;;
19137;SDS011;68178;52.188;5.598;2023-06-14T12:12:20;2.95;;;1.98;;
19137;SDS011;68178;52.188;5.598;2023-06-14T12:14:47;3.33;;;1.85;;
19137;SDS011;68178;52.188;5.598;2023-06-14T12:17:13;2.78;;;1.73;;
19137;SDS011;68178;52.188;5.598;2023-06-14T12:19:42;3.20;;;1.75;;
19137;SDS011;68178;52.188;5.598;2023-06-14T12:22:11;2.05;;;1.90;;
19137;SDS011;68178;52.188;5.598;2023-06-14T12:24:38;4.25;;;1.40;;
19137;SDS011;68178;52.188;5.598;2023-06-14T12:27:04;1.77;;;1.60;;
19137;SDS011;68178;52.188;5.598;2023-06-14T12:29:31;4.93;;;1.95;;
19137;SDS011;68178;52.188;5.598;2023-06-14T12:31:56;2.65;;;1.70;;
19137;SDS011;68178;52.188;5.598;2023-06-14T12:34:25;2.38;;;1.50;;
19137;SDS011;68178;52.188;5.598;2023-06-14T12:36:54;3.47;;;2.30;;
19137;SDS011;68178;52.188;5.598;2023-06-14T12:39:20;3.58;;;1.65;;
19137;SDS011;68178;52.188;5.598;2023-06-14T12:41:46;1.98;;;1.58;;
19137;SDS011;68178;52.188;5.598;2023-06-14T12:44:13;1.70;;;1.55;;
19137;SDS011;68178;52.188;5.598;2023-06-14T12:46:39;2.35;;;1.80;;
19137;SDS011;68178;52.188;5.598;2023-06-14T12:49:10;4.75;;;1.90;;
19137;SDS011;68178;52.188;5.598;2023-06-14T12:51:37;4.43;;;1.88;;
19137;SDS011;68178;52.188;5.598;2023-06-14T12:54:04;3.60;;;1.90;;
19137;SDS011;68178;52.188;5.598;2023-06-14T12:56:29;4.38;;;1.92;;
19137;SDS011;68178;52.188;5.598;2023-06-14T12:58:55;5.28;;;2.10;;
19137;SDS011;68178;52.188;5.598;2023-06-14T13:01:20;5.18;;;1.42;;
19137;SDS011;68178;52.188;5.598;2023-06-14T13:03:46;2.60;;;1.60;;
19137;SDS011;68178;52.188;5.598;2023-06-14T13:06:12;2.33;;;1.67;;
19137;SDS011;68178;52.188;5.598;2023-06-14T13:08:38;2.90;;;1.50;;
19137;SDS011;68178;52.188;5.598;2023-06-14T13:11:04;3.88;;;1.88;;
19137;SDS011;68178;52.188;5.598;2023-06-14T13:13:29;2.80;;;1.50;;
19137;SDS011;68178;52.188;5.598;2023-06-14T13:15:55;3.67;;;1.52;;
19137;SDS011;68178;52.188;5.598;2023-06-14T13:18:22;1.73;;;1.50;;
19137;SDS011;68178;52.188;5.598;2023-06-14T13:20:47;3.47;;;2.13;;
19137;SDS011;68178;52.188;5.598;2023-06-14T13:23:13;5.03;;;1.60;;
19137;SDS011;68178;52.188;5.598;2023-06-14T13:25:40;5.93;;;1.92;;
19137;SDS011;68178;52.188;5.598;2023-06-14T13:28:06;5.85;;;1.83;;
19137;SDS011;68178;52.188;5.598;2023-06-14T13:30:32;4.80;;;1.55;;
19137;SDS011;68178;52.188;5.598;2023-06-14T13:32:58;4.05;;;1.83;;
19137;SDS011;68178;52.188;5.598;2023-06-14T13:35:24;5.93;;;2.13;;
19137;SDS011;68178;52.188;5.598;2023-06-14T13:37:50;3.05;;;1.52;;
19137;SDS011;68178;52.188;5.598;2023-06-14T13:40:16;4.40;;;1.98;;
19137;SDS011;68178;52.188;5.598;2023-06-14T13:42:42;2.80;;;1.83;;
19137;SDS011;68178;52.188;5.598;2023-06-14T13:45:08;3.50;;;1.83;;
19137;SDS011;68178;52.188;5.598;2023-06-14T13:47:35;2.03;;;1.70;;
19137;SDS011;68178;52.188;5.598;2023-06-14T13:50:01;2.67;;;1.90;;
19137;SDS011;68178;52.188;5.598;2023-06-14T13:52:27;3.25;;;1.52;;
19137;SDS011;68178;52.188;5.598;2023-06-14T13:54:52;3.30;;;1.50;;
19137;SDS011;68178;52.188;5.598;2023-06-14T13:57:19;2.88;;;1.67;;
19137;SDS011;68178;52.188;5.598;2023-06-14T13:59:45;3.15;;;1.45;;
19137;SDS011;68178;52.188;5.598;2023-06-14T14:02:11;1.85;;;1.40;;
19137;SDS011;68178;52.188;5.598;2023-06-14T14:04:37;2.45;;;1.55;;
19137;SDS011;68178;52.188;5.598;2023-06-14T14:07:03;5.03;;;1.73;;
19137;SDS011;68178;52.188;5.598;2023-06-14T14:09:30;7.38;;;1.60;;
19137;SDS011;68178;52.188;5.598;2023-06-14T14:11:57;2.25;;;1.75;;
19137;SDS011;68178;52.188;5.598;2023-06-14T14:14:23;3.80;;;1.58;;
19137;SDS011;68178;52.188;5.598;2023-06-14T14:16:49;2.25;;;1.35;;
19137;SDS011;68178;52.188;5.598;2023-06-14T14:19:16;1.77;;;1.50;;
19137;SDS011;68178;52.188;5.598;2023-06-14T14:21:43;1.90;;;1.70;;
19137;SDS011;68178;52.188;5.598;2023-06-14T14:24:09;1.83;;;1.50;;
19137;SDS011;68178;52.188;5.598;2023-06-14T14:26:35;3.38;;;1.65;;
19137;SDS011;68178;52.188;5.598;2023-06-14T14:29:01;2.15;;;1.27;;
19137;SDS011;68178;52.188;5.598;2023-06-14T14:31:27;1.60;;;1.50;;
19137;SDS011;68178;52.188;5.598;2023-06-14T14:33:53;9.88;;;1.75;;
19137;SDS011;68178;52.188;5.598;2023-06-14T14:36:18;2.33;;;1.40;;
19137;SDS011;68178;52.188;5.598;2023-06-14T14:38:44;2.35;;;1.23;;
19137;SDS011;68178;52.188;5.598;2023-06-14T14:41:10;2.17;;;1.40;;
19137;SDS011;68178;52.188;5.598;2023-06-14T14:43:35;2.55;;;1.40;;
19137;SDS011;68178;52.188;5.598;2023-06-14T14:46:01;3.47;;;1.50;;
19137;SDS011;68178;52.188;5.598;2023-06-14T14:48:26;1.55;;;1.23;;
19137;SDS011;68178;52.188;5.598;2023-06-14T14:50:52;2.67;;;1.30;;
19137;SDS011;68178;52.188;5.598;2023-06-14T14:53:18;6.28;;;1.20;;
19137;SDS011;68178;52.188;5.598;2023-06-14T14:55:43;1.42;;;1.33;;
19137;SDS011;68178;52.188;5.598;2023-06-14T14:58:09;1.20;;;1.08;;
19137;SDS011;68178;52.188;5.598;2023-06-14T15:00:34;3.35;;;1.27;;
19137;SDS011;68178;52.188;5.598;2023-06-14T15:03:00;3.42;;;1.33;;
19137;SDS011;68178;52.188;5.598;2023-06-14T15:05:26;1.48;;;1.25;;
19137;SDS011;68178;52.188;5.598;2023-06-14T15:07:51;2.97;;;1.20;;